sensor_id;sensor_type;location;lat;lon;timestamp;temperature;humidity
71155;DHT22;59375;53.216;5.728;2022-09-19T00:01:59;13.10;99.90
71155;DHT22;59375;53.216;5.728;2022-09-19T00:04:30;13.10;99.90
71155;DHT22;59375;53.216;5.728;2022-09-19T00:06:56;13.20;99.90
71155;DHT22;59375;53.216;5.728;2022-09-19T00:09:25;13.20;99.90
71155;DHT22;59375;53.216;5.728;2022-09-19T00:11:52;13.30;99.90
71155;DHT22;59375;53.216;5.728;2022-09-19T00:14:22;13.30;99.90
71155;DHT22;59375;53.216;5.728;2022-09-19T00:16:54;13.30;99.90
71155;DHT22;59375;53.216;5.728;2022-09-19T00:19:21;13.40;99.90
71155;DHT22;59375;53.216;5.728;2022-09-19T00:21:48;13.50;99.90
71155;DHT22;59375;53.216;5.728;2022-09-19T00:24:16;13.50;99.90
71155;DHT22;59375;53.216;5.728;2022-09-19T00:27:01;13.60;99.90
71155;DHT22;59375;53.216;5.728;2022-09-19T00:29:29;13.60;99.90
71155;DHT22;59375;53.216;5.728;2022-09-19T00:31:55;13.60;99.90
71155;DHT22;59375;53.216;5.728;2022-09-19T00:34:20;13.60;99.90
71155;DHT22;59375;53.216;5.728;2022-09-19T00:36:46;13.50;99.90
71155;DHT22;59375;53.216;5.728;2022-09-19T00:39:14;13.40;99.90
71155;DHT22;59375;53.216;5.728;2022-09-19T00:41:40;13.40;99.90
71155;DHT22;59375;53.216;5.728;2022-09-19T00:46:56;13.40;99.90
71155;DHT22;59375;53.216;5.728;2022-09-19T00:49:27;13.40;99.90
71155;DHT22;59375;53.216;5.728;2022-09-19T00:51:59;13.50;99.90
71155;DHT22;59375;53.216;5.728;2022-09-19T00:54:33;13.50;99.90
71155;DHT22;59375;53.216;5.728;2022-09-19T00:57:01;13.50;99.90
71155;DHT22;59375;53.216;5.728;2022-09-19T00:59:30;13.60;99.90
71155;DHT22;59375;53.216;5.728;2022-09-19T01:01:57;13.50;99.90
71155;DHT22;59375;53.216;5.728;2022-09-19T01:04:24;13.50;99.90
71155;DHT22;59375;53.216;5.728;2022-09-19T01:06:57;13.50;99.90
71155;DHT22;59375;53.216;5.728;2022-09-19T01:09:35;13.40;99.90
71155;DHT22;59375;53.216;5.728;2022-09-19T01:12:25;13.50;99.90
71155;DHT22;59375;53.216;5.728;2022-09-19T01:17:52;13.60;99.90
71155;DHT22;59375;53.216;5.728;2022-09-19T01:23:19;13.70;99.90
71155;DHT22;59375;53.216;5.728;2022-09-19T01:29:04;13.80;99.90
71155;DHT22;59375;53.216;5.728;2022-09-19T01:31:35;13.80;99.90
71155;DHT22;59375;53.216;5.728;2022-09-19T01:34:16;13.80;99.90
71155;DHT22;59375;53.216;5.728;2022-09-19T01:36:46;13.80;99.90
71155;DHT22;59375;53.216;5.728;2022-09-19T01:39:17;13.80;99.90
71155;DHT22;59375;53.216;5.728;2022-09-19T01:41:50;13.80;99.90
71155;DHT22;59375;53.216;5.728;2022-09-19T01:44:18;13.80;99.90
71155;DHT22;59375;53.216;5.728;2022-09-19T01:49:52;13.70;99.90
71155;DHT22;59375;53.216;5.728;2022-09-19T01:52:49;13.70;99.90
71155;DHT22;59375;53.216;5.728;2022-09-19T01:55:45;13.60;99.90
71155;DHT22;59375;53.216;5.728;2022-09-19T02:01:07;13.50;99.90
71155;DHT22;59375;53.216;5.728;2022-09-19T02:03:55;13.40;99.90
71155;DHT22;59375;53.216;5.728;2022-09-19T02:06:39;13.40;99.90
71155;DHT22;59375;53.216;5.728;2022-09-19T02:12:19;13.40;99.90
71155;DHT22;59375;53.216;5.728;2022-09-19T02:14:51;13.40;99.90
71155;DHT22;59375;53.216;5.728;2022-09-19T02:17:26;13.30;99.90
71155;DHT22;59375;53.216;5.728;2022-09-19T02:20:06;13.30;99.90
71155;DHT22;59375;53.216;5.728;2022-09-19T02:22:37;13.40;99.90
71155;DHT22;59375;53.216;5.728;2022-09-19T02:25:09;13.40;99.90
71155;DHT22;59375;53.216;5.728;2022-09-19T02:27:45;13.40;99.90
71155;DHT22;59375;53.216;5.728;2022-09-19T02:30:16;13.50;99.90
71155;DHT22;59375;53.216;5.728;2022-09-19T02:32:45;13.50;99.90
71155;DHT22;59375;53.216;5.728;2022-09-19T02:35:16;13.40;99.90
71155;DHT22;59375;53.216;5.728;2022-09-19T02:37:49;13.50;99.90
71155;DHT22;59375;53.216;5.728;2022-09-19T02:43:28;13.50;99.90
71155;DHT22;59375;53.216;5.728;2022-09-19T02:46:07;13.60;99.90
71155;DHT22;59375;53.216;5.728;2022-09-19T02:48:58;13.60;99.90
71155;DHT22;59375;53.216;5.728;2022-09-19T02:51:38;13.50;99.90
71155;DHT22;59375;53.216;5.728;2022-09-19T02:54:10;13.50;99.90
71155;DHT22;59375;53.216;5.728;2022-09-19T02:56:40;13.40;99.90
71155;DHT22;59375;53.216;5.728;2022-09-19T02:59:23;13.40;99.90
71155;DHT22;59375;53.216;5.728;2022-09-19T03:01:54;13.30;99.90
71155;DHT22;59375;53.216;5.728;2022-09-19T03:04:25;13.30;99.90
71155;DHT22;59375;53.216;5.728;2022-09-19T03:07:16;13.30;99.90
71155;DHT22;59375;53.216;5.728;2022-09-19T03:09:53;13.30;99.90
71155;DHT22;59375;53.216;5.728;2022-09-19T03:12:28;13.30;99.90
71155;DHT22;59375;53.216;5.728;2022-09-19T03:14:54;13.30;99.90
71155;DHT22;59375;53.216;5.728;2022-09-19T03:17:35;13.30;99.90
71155;DHT22;59375;53.216;5.728;2022-09-19T03:20:04;13.30;99.90
71155;DHT22;59375;53.216;5.728;2022-09-19T03:22:30;13.30;99.90
71155;DHT22;59375;53.216;5.728;2022-09-19T03:24:56;13.30;99.90
71155;DHT22;59375;53.216;5.728;2022-09-19T03:27:27;13.40;99.90
71155;DHT22;59375;53.216;5.728;2022-09-19T03:29:53;13.40;99.90
71155;DHT22;59375;53.216;5.728;2022-09-19T03:32:18;13.40;99.90
71155;DHT22;59375;53.216;5.728;2022-09-19T03:34:52;13.30;99.90
71155;DHT22;59375;53.216;5.728;2022-09-19T03:37:20;13.20;99.90
71155;DHT22;59375;53.216;5.728;2022-09-19T03:39:46;13.10;99.90
71155;DHT22;59375;53.216;5.728;2022-09-19T03:42:12;13.10;99.90
71155;DHT22;59375;53.216;5.728;2022-09-19T03:44:39;13.10;99.90
71155;DHT22;59375;53.216;5.728;2022-09-19T03:47:05;13.10;99.90
71155;DHT22;59375;53.216;5.728;2022-09-19T03:49:30;13.10;99.90
71155;DHT22;59375;53.216;5.728;2022-09-19T03:51:56;13.20;99.90
71155;DHT22;59375;53.216;5.728;2022-09-19T03:54:25;13.20;99.90
71155;DHT22;59375;53.216;5.728;2022-09-19T03:56:50;13.20;99.90
71155;DHT22;59375;53.216;5.728;2022-09-19T03:59:16;13.20;99.90
71155;DHT22;59375;53.216;5.728;2022-09-19T04:01:41;13.20;99.90
71155;DHT22;59375;53.216;5.728;2022-09-19T04:04:07;13.20;99.90
71155;DHT22;59375;53.216;5.728;2022-09-19T04:06:33;13.20;99.90
71155;DHT22;59375;53.216;5.728;2022-09-19T04:08:58;13.20;99.90
71155;DHT22;59375;53.216;5.728;2022-09-19T04:11:26;13.30;99.90
71155;DHT22;59375;53.216;5.728;2022-09-19T04:13:52;13.40;99.90
71155;DHT22;59375;53.216;5.728;2022-09-19T04:16:20;13.50;99.90
71155;DHT22;59375;53.216;5.728;2022-09-19T04:18:45;13.50;99.90
71155;DHT22;59375;53.216;5.728;2022-09-19T04:21:15;13.50;99.90
71155;DHT22;59375;53.216;5.728;2022-09-19T04:23:43;13.50;99.90
71155;DHT22;59375;53.216;5.728;2022-09-19T04:26:09;13.50;99.90
71155;DHT22;59375;53.216;5.728;2022-09-19T04:28:37;13.50;99.90
71155;DHT22;59375;53.216;5.728;2022-09-19T04:31:05;13.40;99.90
71155;DHT22;59375;53.216;5.728;2022-09-19T04:33:31;13.30;99.90
71155;DHT22;59375;53.216;5.728;2022-09-19T04:35:56;13.20;99.90
71155;DHT22;59375;53.216;5.728;2022-09-19T04:38:26;13.10;99.90
71155;DHT22;59375;53.216;5.728;2022-09-19T04:40:54;13.10;99.90
71155;DHT22;59375;53.216;5.728;2022-09-19T04:43:22;13.10;99.90
71155;DHT22;59375;53.216;5.728;2022-09-19T04:45:49;13.10;99.90
71155;DHT22;59375;53.216;5.728;2022-09-19T04:48:16;13.10;99.90
71155;DHT22;59375;53.216;5.728;2022-09-19T04:50:44;13.20;99.90
71155;DHT22;59375;53.216;5.728;2022-09-19T04:53:10;13.20;99.90
71155;DHT22;59375;53.216;5.728;2022-09-19T04:55:39;13.20;99.90
71155;DHT22;59375;53.216;5.728;2022-09-19T04:58:05;13.20;99.90
71155;DHT22;59375;53.216;5.728;2022-09-19T05:00:31;13.10;99.90
71155;DHT22;59375;53.216;5.728;2022-09-19T05:03:08;13.10;99.90
71155;DHT22;59375;53.216;5.728;2022-09-19T05:05:35;13.10;99.90
71155;DHT22;59375;53.216;5.728;2022-09-19T05:08:02;13.10;99.90
71155;DHT22;59375;53.216;5.728;2022-09-19T05:10:30;13.10;99.90
71155;DHT22;59375;53.216;5.728;2022-09-19T05:12:57;13.10;99.90
71155;DHT22;59375;53.216;5.728;2022-09-19T05:15:22;13.00;99.90
71155;DHT22;59375;53.216;5.728;2022-09-19T05:17:50;13.00;99.90
71155;DHT22;59375;53.216;5.728;2022-09-19T05:20:18;13.00;99.90
71155;DHT22;59375;53.216;5.728;2022-09-19T05:22:44;12.90;99.90
71155;DHT22;59375;53.216;5.728;2022-09-19T05:25:10;13.00;99.90
71155;DHT22;59375;53.216;5.728;2022-09-19T05:27:36;13.00;99.90
71155;DHT22;59375;53.216;5.728;2022-09-19T05:30:05;13.10;99.90
71155;DHT22;59375;53.216;5.728;2022-09-19T05:32:32;13.20;99.90
71155;DHT22;59375;53.216;5.728;2022-09-19T05:34:59;13.20;99.90
71155;DHT22;59375;53.216;5.728;2022-09-19T05:37:26;13.30;99.90
71155;DHT22;59375;53.216;5.728;2022-09-19T05:39:52;13.30;99.90
71155;DHT22;59375;53.216;5.728;2022-09-19T05:42:18;13.30;99.90
71155;DHT22;59375;53.216;5.728;2022-09-19T05:44:43;13.20;99.90
71155;DHT22;59375;53.216;5.728;2022-09-19T05:47:08;13.20;99.90
71155;DHT22;59375;53.216;5.728;2022-09-19T05:49:36;13.10;99.90
71155;DHT22;59375;53.216;5.728;2022-09-19T05:52:02;13.10;99.90
71155;DHT22;59375;53.216;5.728;2022-09-19T05:54:47;13.20;99.90
71155;DHT22;59375;53.216;5.728;2022-09-19T05:57:13;13.20;99.90
71155;DHT22;59375;53.216;5.728;2022-09-19T05:59:38;13.30;99.90
71155;DHT22;59375;53.216;5.728;2022-09-19T06:02:05;13.40;99.90
71155;DHT22;59375;53.216;5.728;2022-09-19T06:04:34;13.50;99.90
71155;DHT22;59375;53.216;5.728;2022-09-19T06:07:00;13.50;99.90
71155;DHT22;59375;53.216;5.728;2022-09-19T06:09:27;13.50;99.90
71155;DHT22;59375;53.216;5.728;2022-09-19T06:11:53;13.50;99.90
71155;DHT22;59375;53.216;5.728;2022-09-19T06:14:18;13.50;99.90
71155;DHT22;59375;53.216;5.728;2022-09-19T06:16:47;13.50;99.90
71155;DHT22;59375;53.216;5.728;2022-09-19T06:19:13;13.50;99.90
71155;DHT22;59375;53.216;5.728;2022-09-19T06:21:39;13.40;99.90
71155;DHT22;59375;53.216;5.728;2022-09-19T06:24:04;13.40;99.90
71155;DHT22;59375;53.216;5.728;2022-09-19T06:26:33;13.30;99.90
71155;DHT22;59375;53.216;5.728;2022-09-19T06:28:58;13.30;99.90
71155;DHT22;59375;53.216;5.728;2022-09-19T06:31:27;13.30;99.90
71155;DHT22;59375;53.216;5.728;2022-09-19T06:33:53;13.30;99.90
71155;DHT22;59375;53.216;5.728;2022-09-19T06:36:19;13.20;99.90
71155;DHT22;59375;53.216;5.728;2022-09-19T06:38:45;13.20;99.90
71155;DHT22;59375;53.216;5.728;2022-09-19T06:41:11;13.10;99.90
71155;DHT22;59375;53.216;5.728;2022-09-19T06:43:37;13.10;99.90
71155;DHT22;59375;53.216;5.728;2022-09-19T06:46:03;13.10;99.90
71155;DHT22;59375;53.216;5.728;2022-09-19T06:48:29;13.10;99.90
71155;DHT22;59375;53.216;5.728;2022-09-19T06:50:54;13.10;99.90
71155;DHT22;59375;53.216;5.728;2022-09-19T06:53:20;13.30;99.90
71155;DHT22;59375;53.216;5.728;2022-09-19T06:55:45;13.70;99.90
71155;DHT22;59375;53.216;5.728;2022-09-19T06:58:12;14.10;99.90
71155;DHT22;59375;53.216;5.728;2022-09-19T07:00:38;14.30;99.90
71155;DHT22;59375;53.216;5.728;2022-09-19T07:03:16;14.40;99.90
71155;DHT22;59375;53.216;5.728;2022-09-19T07:05:43;14.60;99.90
71155;DHT22;59375;53.216;5.728;2022-09-19T07:08:12;14.80;99.90
71155;DHT22;59375;53.216;5.728;2022-09-19T07:10:39;15.00;99.90
71155;DHT22;59375;53.216;5.728;2022-09-19T07:13:06;15.20;99.90
71155;DHT22;59375;53.216;5.728;2022-09-19T07:15:34;15.40;99.90
71155;DHT22;59375;53.216;5.728;2022-09-19T07:18:00;15.70;99.80
71155;DHT22;59375;53.216;5.728;2022-09-19T07:20:27;16.10;98.70
71155;DHT22;59375;53.216;5.728;2022-09-19T07:23:19;16.50;98.60
71155;DHT22;59375;53.216;5.728;2022-09-19T07:25:45;16.80;96.40
71155;DHT22;59375;53.216;5.728;2022-09-19T07:28:14;17.20;96.90
71155;DHT22;59375;53.216;5.728;2022-09-19T07:30:41;17.40;95.80
71155;DHT22;59375;53.216;5.728;2022-09-19T07:33:11;17.50;95.50
71155;DHT22;59375;53.216;5.728;2022-09-19T07:35:38;17.70;95.80
71155;DHT22;59375;53.216;5.728;2022-09-19T07:38:08;17.80;95.70
71155;DHT22;59375;53.216;5.728;2022-09-19T07:40:34;17.90;95.90
71155;DHT22;59375;53.216;5.728;2022-09-19T07:43:00;17.90;96.70
71155;DHT22;59375;53.216;5.728;2022-09-19T07:45:31;17.90;96.50
71155;DHT22;59375;53.216;5.728;2022-09-19T07:47:57;17.90;96.60
71155;DHT22;59375;53.216;5.728;2022-09-19T07:50:23;17.70;96.90
71155;DHT22;59375;53.216;5.728;2022-09-19T07:53:00;17.20;98.00
71155;DHT22;59375;53.216;5.728;2022-09-19T07:55:27;16.80;98.90
71155;DHT22;59375;53.216;5.728;2022-09-19T07:57:55;16.60;99.50
71155;DHT22;59375;53.216;5.728;2022-09-19T08:00:22;16.40;99.90
71155;DHT22;59375;53.216;5.728;2022-09-19T08:03:03;16.30;99.60
71155;DHT22;59375;53.216;5.728;2022-09-19T08:05:32;16.10;99.90
71155;DHT22;59375;53.216;5.728;2022-09-19T08:07:59;16.00;99.90
71155;DHT22;59375;53.216;5.728;2022-09-19T08:10:25;15.90;99.90
71155;DHT22;59375;53.216;5.728;2022-09-19T08:12:51;15.90;99.90
71155;DHT22;59375;53.216;5.728;2022-09-19T08:15:18;15.90;99.90
71155;DHT22;59375;53.216;5.728;2022-09-19T08:18:09;15.80;99.90
71155;DHT22;59375;53.216;5.728;2022-09-19T08:20:37;15.80;99.90
71155;DHT22;59375;53.216;5.728;2022-09-19T08:23:05;15.70;99.90
71155;DHT22;59375;53.216;5.728;2022-09-19T08:25:33;15.70;99.90
71155;DHT22;59375;53.216;5.728;2022-09-19T08:27:59;15.60;99.90
71155;DHT22;59375;53.216;5.728;2022-09-19T08:30:26;15.60;99.90
71155;DHT22;59375;53.216;5.728;2022-09-19T08:32:52;15.60;99.90
71155;DHT22;59375;53.216;5.728;2022-09-19T08:35:19;15.70;99.90
71155;DHT22;59375;53.216;5.728;2022-09-19T08:37:46;15.80;99.90
71155;DHT22;59375;53.216;5.728;2022-09-19T08:40:14;15.90;99.90
71155;DHT22;59375;53.216;5.728;2022-09-19T08:45:59;15.20;99.90
71155;DHT22;59375;53.216;5.728;2022-09-19T08:48:43;14.40;99.90
71155;DHT22;59375;53.216;5.728;2022-09-19T08:51:17;13.90;99.90
71155;DHT22;59375;53.216;5.728;2022-09-19T08:53:48;13.60;99.90
71155;DHT22;59375;53.216;5.728;2022-09-19T08:56:14;13.50;99.90
71155;DHT22;59375;53.216;5.728;2022-09-19T08:58:47;13.50;99.90
71155;DHT22;59375;53.216;5.728;2022-09-19T09:01:16;13.60;99.90
71155;DHT22;59375;53.216;5.728;2022-09-19T09:04:01;13.70;99.90
71155;DHT22;59375;53.216;5.728;2022-09-19T09:10:02;13.80;99.90
71155;DHT22;59375;53.216;5.728;2022-09-19T09:18:43;13.80;99.90
71155;DHT22;59375;53.216;5.728;2022-09-19T09:21:24;13.90;99.90
71155;DHT22;59375;53.216;5.728;2022-09-19T09:23:59;14.10;99.90
71155;DHT22;59375;53.216;5.728;2022-09-19T09:26:28;14.40;99.90
71155;DHT22;59375;53.216;5.728;2022-09-19T09:29:29;14.70;99.90
71155;DHT22;59375;53.216;5.728;2022-09-19T09:32:14;15.00;99.90
71155;DHT22;59375;53.216;5.728;2022-09-19T09:35:05;15.00;99.90
71155;DHT22;59375;53.216;5.728;2022-09-19T09:37:48;15.00;99.90
71155;DHT22;59375;53.216;5.728;2022-09-19T09:40:30;14.90;99.90
71155;DHT22;59375;53.216;5.728;2022-09-19T09:43:15;15.00;99.90
71155;DHT22;59375;53.216;5.728;2022-09-19T09:45:47;15.20;99.90
71155;DHT22;59375;53.216;5.728;2022-09-19T09:53:52;15.20;99.90
71155;DHT22;59375;53.216;5.728;2022-09-19T10:05:46;15.50;99.90
71155;DHT22;59375;53.216;5.728;2022-09-19T10:08:20;15.50;99.90
71155;DHT22;59375;53.216;5.728;2022-09-19T10:11:01;15.30;99.90
71155;DHT22;59375;53.216;5.728;2022-09-19T10:13:33;15.20;99.90
71155;DHT22;59375;53.216;5.728;2022-09-19T10:16:04;15.00;99.90
71155;DHT22;59375;53.216;5.728;2022-09-19T10:18:53;14.90;99.90
71155;DHT22;59375;53.216;5.728;2022-09-19T10:21:20;14.80;99.90
71155;DHT22;59375;53.216;5.728;2022-09-19T10:23:46;14.70;99.90
71155;DHT22;59375;53.216;5.728;2022-09-19T10:26:16;14.60;99.90
71155;DHT22;59375;53.216;5.728;2022-09-19T10:28:53;14.40;99.90
71155;DHT22;59375;53.216;5.728;2022-09-19T10:33:50;14.00;99.90
71155;DHT22;59375;53.216;5.728;2022-09-19T10:36:22;13.90;99.90
71155;DHT22;59375;53.216;5.728;2022-09-19T10:38:53;13.80;99.90
71155;DHT22;59375;53.216;5.728;2022-09-19T10:41:21;13.50;99.90
71155;DHT22;59375;53.216;5.728;2022-09-19T10:43:55;13.20;99.90
71155;DHT22;59375;53.216;5.728;2022-09-19T10:46:28;12.90;99.90
71155;DHT22;59375;53.216;5.728;2022-09-19T10:49:02;12.80;99.90
71155;DHT22;59375;53.216;5.728;2022-09-19T10:51:37;12.80;99.90
71155;DHT22;59375;53.216;5.728;2022-09-19T10:54:11;12.90;99.90
71155;DHT22;59375;53.216;5.728;2022-09-19T10:56:41;13.00;99.90
71155;DHT22;59375;53.216;5.728;2022-09-19T11:01:39;13.30;99.90
71155;DHT22;59375;53.216;5.728;2022-09-19T11:07:01;13.70;99.90
71155;DHT22;59375;53.216;5.728;2022-09-19T11:09:37;13.90;99.90
71155;DHT22;59375;53.216;5.728;2022-09-19T11:12:13;14.10;99.90
71155;DHT22;59375;53.216;5.728;2022-09-19T11:14:41;14.30;99.90
71155;DHT22;59375;53.216;5.728;2022-09-19T11:26:01;14.70;99.90
71155;DHT22;59375;53.216;5.728;2022-09-19T11:31:35;14.60;99.90
71155;DHT22;59375;53.216;5.728;2022-09-19T11:37:13;14.40;99.90
71155;DHT22;59375;53.216;5.728;2022-09-19T11:40:15;14.30;99.90
71155;DHT22;59375;53.216;5.728;2022-09-19T11:43:05;14.30;99.90
71155;DHT22;59375;53.216;5.728;2022-09-19T11:45:55;14.60;99.90
71155;DHT22;59375;53.216;5.728;2022-09-19T11:51:20;16.10;99.90
71155;DHT22;59375;53.216;5.728;2022-09-19T11:56:45;17.00;99.90
71155;DHT22;59375;53.216;5.728;2022-09-19T12:08:27;17.90;99.40
71155;DHT22;59375;53.216;5.728;2022-09-19T12:11:19;18.20;98.60
71155;DHT22;59375;53.216;5.728;2022-09-19T12:14:01;18.50;97.70
71155;DHT22;59375;53.216;5.728;2022-09-19T12:16:37;18.20;98.70
71155;DHT22;59375;53.216;5.728;2022-09-19T12:19:09;18.10;97.50
71155;DHT22;59375;53.216;5.728;2022-09-19T12:21:41;18.30;98.40
71155;DHT22;59375;53.216;5.728;2022-09-19T12:24:15;18.60;98.80
71155;DHT22;59375;53.216;5.728;2022-09-19T12:27:09;18.90;98.20
71155;DHT22;59375;53.216;5.728;2022-09-19T12:30:00;19.20;97.50
71155;DHT22;59375;53.216;5.728;2022-09-19T12:40:59;20.00;97.20
71155;DHT22;59375;53.216;5.728;2022-09-19T12:43:34;20.10;96.30
71155;DHT22;59375;53.216;5.728;2022-09-19T12:46:36;19.60;96.60
71155;DHT22;59375;53.216;5.728;2022-09-19T12:49:34;18.80;95.90
71155;DHT22;59375;53.216;5.728;2022-09-19T12:52:13;18.30;95.80
71155;DHT22;59375;53.216;5.728;2022-09-19T12:54:55;18.60;95.10
71155;DHT22;59375;53.216;5.728;2022-09-19T12:57:26;18.90;93.60
71155;DHT22;59375;53.216;5.728;2022-09-19T13:00:03;19.10;93.70
71155;DHT22;59375;53.216;5.728;2022-09-19T13:02:39;19.30;92.80
71155;DHT22;59375;53.216;5.728;2022-09-19T13:08:00;19.00;91.80
71155;DHT22;59375;53.216;5.728;2022-09-19T13:10:44;19.10;91.30
71155;DHT22;59375;53.216;5.728;2022-09-19T13:13:27;19.20;91.30
71155;DHT22;59375;53.216;5.728;2022-09-19T13:15:57;19.20;90.70
71155;DHT22;59375;53.216;5.728;2022-09-19T13:18:26;19.40;90.70
71155;DHT22;59375;53.216;5.728;2022-09-19T13:21:18;19.70;89.80
71155;DHT22;59375;53.216;5.728;2022-09-19T13:24:04;19.40;86.00
71155;DHT22;59375;53.216;5.728;2022-09-19T13:26:35;19.30;89.40
71155;DHT22;59375;53.216;5.728;2022-09-19T13:37:02;19.00;88.50
71155;DHT22;59375;53.216;5.728;2022-09-19T13:42:28;19.30;88.40
71155;DHT22;59375;53.216;5.728;2022-09-19T13:45:02;19.20;89.50
71155;DHT22;59375;53.216;5.728;2022-09-19T13:47:31;19.10;89.30
71155;DHT22;59375;53.216;5.728;2022-09-19T13:50:19;18.60;90.00
71155;DHT22;59375;53.216;5.728;2022-09-19T13:52:55;18.10;90.20
71155;DHT22;59375;53.216;5.728;2022-09-19T13:58:29;17.60;91.10
71155;DHT22;59375;53.216;5.728;2022-09-19T14:03:58;17.30;90.20
71155;DHT22;59375;53.216;5.728;2022-09-19T14:06:45;17.10;92.40
71155;DHT22;59375;53.216;5.728;2022-09-19T14:11:56;16.40;93.40
71155;DHT22;59375;53.216;5.728;2022-09-19T14:19:49;16.40;94.70
71155;DHT22;59375;53.216;5.728;2022-09-19T14:27:55;16.10;97.20
71155;DHT22;59375;53.216;5.728;2022-09-19T14:47:33;15.60;99.00
71155;DHT22;59375;53.216;5.728;2022-09-19T14:50:10;15.70;98.30
71155;DHT22;59375;53.216;5.728;2022-09-19T14:52:39;15.90;98.50
71155;DHT22;59375;53.216;5.728;2022-09-19T14:55:15;16.00;96.70
71155;DHT22;59375;53.216;5.728;2022-09-19T14:57:48;16.10;97.70
71155;DHT22;59375;53.216;5.728;2022-09-19T15:00:25;16.10;96.90
71155;DHT22;59375;53.216;5.728;2022-09-19T15:02:55;15.90;96.40
71155;DHT22;59375;53.216;5.728;2022-09-19T15:05:31;15.70;95.80
71155;DHT22;59375;53.216;5.728;2022-09-19T15:08:12;15.60;96.40
71155;DHT22;59375;53.216;5.728;2022-09-19T15:10:38;15.70;97.00
71155;DHT22;59375;53.216;5.728;2022-09-19T15:15:44;15.90;95.80
71155;DHT22;59375;53.216;5.728;2022-09-19T15:18:35;15.90;94.80
71155;DHT22;59375;53.216;5.728;2022-09-19T15:21:03;15.60;94.80
71155;DHT22;59375;53.216;5.728;2022-09-19T15:23:35;15.60;96.20
71155;DHT22;59375;53.216;5.728;2022-09-19T15:26:03;15.60;96.80
71155;DHT22;59375;53.216;5.728;2022-09-19T15:28:34;15.60;96.70
71155;DHT22;59375;53.216;5.728;2022-09-19T15:33:38;15.50;96.50
71155;DHT22;59375;53.216;5.728;2022-09-19T15:36:04;15.40;96.90
71155;DHT22;59375;53.216;5.728;2022-09-19T15:38:34;15.40;96.90
71155;DHT22;59375;53.216;5.728;2022-09-19T15:41:07;15.50;97.50
71155;DHT22;59375;53.216;5.728;2022-09-19T15:43:34;15.50;97.80
71155;DHT22;59375;53.216;5.728;2022-09-19T15:46:04;15.60;97.40
71155;DHT22;59375;53.216;5.728;2022-09-19T15:48:49;15.40;96.80
71155;DHT22;59375;53.216;5.728;2022-09-19T15:51:34;15.20;97.20
71155;DHT22;59375;53.216;5.728;2022-09-19T15:54:00;15.10;97.80
71155;DHT22;59375;53.216;5.728;2022-09-19T15:56:26;15.00;98.10
71155;DHT22;59375;53.216;5.728;2022-09-19T15:58:55;14.90;98.40
71155;DHT22;59375;53.216;5.728;2022-09-19T16:01:23;14.80;98.50
71155;DHT22;59375;53.216;5.728;2022-09-19T16:04:11;14.80;98.70
71155;DHT22;59375;53.216;5.728;2022-09-19T16:06:55;14.90;99.00
71155;DHT22;59375;53.216;5.728;2022-09-19T16:09:43;15.00;99.00
71155;DHT22;59375;53.216;5.728;2022-09-19T16:14:53;15.20;98.40
71155;DHT22;59375;53.216;5.728;2022-09-19T16:17:21;15.30;98.20
71155;DHT22;59375;53.216;5.728;2022-09-19T16:19:47;15.30;98.40
71155;DHT22;59375;53.216;5.728;2022-09-19T16:22:21;15.30;98.10
71155;DHT22;59375;53.216;5.728;2022-09-19T16:24:59;15.10;97.70
71155;DHT22;59375;53.216;5.728;2022-09-19T16:27:28;15.00;98.50
71155;DHT22;59375;53.216;5.728;2022-09-19T16:29:58;15.00;98.10
71155;DHT22;59375;53.216;5.728;2022-09-19T16:32:25;14.90;98.20
71155;DHT22;59375;53.216;5.728;2022-09-19T16:34:56;14.80;97.60
71155;DHT22;59375;53.216;5.728;2022-09-19T16:37:37;14.80;98.00
71155;DHT22;59375;53.216;5.728;2022-09-19T16:40:19;14.70;98.50
71155;DHT22;59375;53.216;5.728;2022-09-19T16:42:45;14.70;98.60
71155;DHT22;59375;53.216;5.728;2022-09-19T16:47:46;14.60;98.00
71155;DHT22;59375;53.216;5.728;2022-09-19T16:50:17;14.60;98.10
71155;DHT22;59375;53.216;5.728;2022-09-19T16:52:48;14.50;98.10
71155;DHT22;59375;53.216;5.728;2022-09-19T16:55:36;14.50;98.40
71155;DHT22;59375;53.216;5.728;2022-09-19T16:58:09;14.50;98.50
71155;DHT22;59375;53.216;5.728;2022-09-19T17:00:36;14.50;98.50
71155;DHT22;59375;53.216;5.728;2022-09-19T17:03:01;14.40;97.60
71155;DHT22;59375;53.216;5.728;2022-09-19T17:05:31;14.30;97.00
71155;DHT22;59375;53.216;5.728;2022-09-19T17:07:58;14.20;96.70
71155;DHT22;59375;53.216;5.728;2022-09-19T17:10:25;14.10;96.40
71155;DHT22;59375;53.216;5.728;2022-09-19T17:12:51;14.10;96.60
71155;DHT22;59375;53.216;5.728;2022-09-19T17:15:38;13.90;96.70
71155;DHT22;59375;53.216;5.728;2022-09-19T17:18:05;13.90;96.70
71155;DHT22;59375;53.216;5.728;2022-09-19T17:20:31;13.80;97.30
71155;DHT22;59375;53.216;5.728;2022-09-19T17:22:58;13.80;98.00
71155;DHT22;59375;53.216;5.728;2022-09-19T17:25:47;13.80;99.30
71155;DHT22;59375;53.216;5.728;2022-09-19T17:28:15;13.80;99.90
71155;DHT22;59375;53.216;5.728;2022-09-19T17:30:43;13.70;99.90
71155;DHT22;59375;53.216;5.728;2022-09-19T17:33:17;13.70;99.90
71155;DHT22;59375;53.216;5.728;2022-09-19T17:35:43;13.80;99.90
71155;DHT22;59375;53.216;5.728;2022-09-19T17:38:08;13.80;99.90
71155;DHT22;59375;53.216;5.728;2022-09-19T17:40:36;13.80;99.90
71155;DHT22;59375;53.216;5.728;2022-09-19T17:43:08;13.80;99.90
71155;DHT22;59375;53.216;5.728;2022-09-19T17:45:34;13.80;99.80
71155;DHT22;59375;53.216;5.728;2022-09-19T17:48:00;13.70;99.50
71155;DHT22;59375;53.216;5.728;2022-09-19T17:50:28;13.70;99.40
71155;DHT22;59375;53.216;5.728;2022-09-19T17:52:55;13.60;99.40
71155;DHT22;59375;53.216;5.728;2022-09-19T17:55:20;13.60;99.20
71155;DHT22;59375;53.216;5.728;2022-09-19T17:57:47;13.50;98.70
71155;DHT22;59375;53.216;5.728;2022-09-19T18:00:14;13.50;98.60
71155;DHT22;59375;53.216;5.728;2022-09-19T18:02:40;13.50;98.50
71155;DHT22;59375;53.216;5.728;2022-09-19T18:05:25;13.40;98.40
71155;DHT22;59375;53.216;5.728;2022-09-19T18:07:51;13.40;98.70
71155;DHT22;59375;53.216;5.728;2022-09-19T18:10:21;13.30;99.10
71155;DHT22;59375;53.216;5.728;2022-09-19T18:12:47;13.30;99.40
71155;DHT22;59375;53.216;5.728;2022-09-19T18:15:14;13.20;99.70
71155;DHT22;59375;53.216;5.728;2022-09-19T18:17:40;13.20;99.60
71155;DHT22;59375;53.216;5.728;2022-09-19T18:20:06;13.20;99.90
71155;DHT22;59375;53.216;5.728;2022-09-19T18:22:31;13.10;99.80
71155;DHT22;59375;53.216;5.728;2022-09-19T18:24:59;13.10;99.60
71155;DHT22;59375;53.216;5.728;2022-09-19T18:27:32;13.00;99.40
71155;DHT22;59375;53.216;5.728;2022-09-19T18:29:57;13.00;99.40
71155;DHT22;59375;53.216;5.728;2022-09-19T18:32:23;13.00;99.50
71155;DHT22;59375;53.216;5.728;2022-09-19T18:34:48;12.90;99.80
71155;DHT22;59375;53.216;5.728;2022-09-19T18:37:13;12.90;99.70